Time;durP1;ratioP1;P1;durP2;ratioP2;P2;SDS_P1;SDS_P2;PMS_P1;PMS_P2;Temp;Humidity;BMP_temperature;BMP_pressure;BME280_temperature;BME280_humidity;BME280_pressure;Samples;Min_cycle;Max_cycle;Signal;HPM_P1;HPM_P2
2023/07/19 00:02:39;;;;;;;276.63;260.53;;;;;;;26.68;48.76;97019.88;5086253;28;20262;-78
2023/07/19 00:06:00;;;;;;;322.83;303.43;;;;;;;26.30;49.50;97026.75;5067501;28;20270;-77
2023/07/19 00:09:21;;;;;;;777.07;725.43;;;;;;;26.22;50.39;97013.47;5067177;28;20657;-76
2023/07/19 00:12:42;;;;;;;452.63;423.37;;;;;;;26.09;50.96;97018.47;5067081;28;20597;-78
2023/07/19 00:16:03;;;;;;;123.87;117.17;;;;;;;25.81;51.25;97028.53;5067989;28;20203;-80
2023/07/19 00:19:24;;;;;;;195.20;184.87;;;;;;;25.86;50.78;97018.28;5067333;28;20227;-78
2023/07/19 00:22:45;;;;;;;70.53;65.33;;;;;;;25.75;51.34;97016.78;5084575;28;20204;-77
2023/07/19 00:26:05;;;;;;;115.53;108.47;;;;;;;25.74;51.43;97015.09;5085421;28;20639;-77
2023/07/19 00:29:26;;;;;;;371.90;346.33;;;;;;;25.74;51.64;97020.41;5086901;28;20200;-78
2023/07/19 00:32:48;;;;;;;724.27;673.67;;;;;;;25.60;52.03;97018.41;5050516;28;20262;-79
2023/07/19 00:36:09;;;;;;;8.43;6.00;;;;;;;25.39;53.29;97004.72;5038160;28;20311;-77
2023/07/19 00:39:30;;;;;;;19.33;7.90;;;;;;;25.54;52.82;97020.88;5068066;28;20315;-76
2023/07/19 00:42:51;;;;;;;94.23;87.57;;;;;;;25.46;53.01;97021.69;5068226;28;20242;-78
2023/07/19 00:46:12;;;;;;;105.23;98.70;;;;;;;25.40;53.04;97005.56;5085895;28;20864;-77
2023/07/19 00:49:33;;;;;;;239.90;226.33;;;;;;;25.49;53.07;97017.91;5067434;28;20203;-78
2023/07/19 00:52:54;;;;;;;236.00;222.50;;;;;;;25.56;53.17;97009.13;5066649;28;20660;-78
2023/07/19 00:56:14;;;;;;;365.43;342.63;;;;;;;25.42;53.30;96995.66;5067038;28;20207;-79
2023/07/19 00:59:35;;;;;;;408.43;383.00;;;;;;;25.45;53.63;97001.47;5067520;28;20225;-77
2023/07/19 01:02:56;;;;;;;516.43;483.77;;;;;;;25.48;53.40;97001.16;5050455;28;20231;-78
2023/07/19 01:06:16;;;;;;;580.93;543.73;;;;;;;25.70;53.26;96995.19;5066902;28;20189;-78
2023/07/19 01:09:37;;;;;;;631.37;589.10;;;;;;;25.66;53.61;96975.31;5066112;28;20281;-77
2023/07/19 01:12:58;;;;;;;709.80;662.10;;;;;;;25.79;52.74;96986.25;5066952;28;20922;-79
2023/07/19 01:16:19;;;;;;;731.47;683.40;;;;;;;25.71;53.22;97004.84;5050739;28;20591;-78
2023/07/19 01:19:39;;;;;;;758.53;708.23;;;;;;;25.37;52.80;96929.81;5050791;28;20805;-77
2023/07/19 01:23:00;;;;;;;618.33;577.70;;;;;;;25.60;53.95;96991.88;5066547;28;20687;-79
2023/07/19 01:26:20;;;;;;;547.63;511.13;;;;;;;25.47;53.91;96980.91;5088686;28;20203;-77
2023/07/19 01:29:41;;;;;;;633.90;591.97;;;;;;;25.35;54.52;96981.38;5070708;28;20189;-79
2023/07/19 01:33:02;;;;;;;535.50;499.73;;;;;;;25.36;54.70;96994.47;5070661;28;20193;-76
2023/07/19 01:36:23;;;;;;;442.43;413.77;;;;;;;25.40;54.47;96995.78;5087830;28;20212;-77
2023/07/19 01:39:43;;;;;;;370.47;345.77;;;;;;;25.37;54.30;97005.91;5069788;28;20232;-79
2023/07/19 01:43:04;;;;;;;492.27;460.00;;;;;;;25.38;54.17;97012.84;5088488;28;20199;-78
2023/07/19 01:46:25;;;;;;;454.77;425.20;;;;;;;25.38;53.89;97007.56;5088674;28;20263;-79
2023/07/19 01:49:46;;;;;;;416.00;389.90;;;;;;;25.25;53.97;97001.88;5070135;28;20201;-80
2023/07/19 01:52:34;;;;;;;8.60;5.23;;;;;;;25.45;54.28;96992.69;5068742;28;20203;-77
2023/07/19 01:55:41;;;;;;;10.17;4.73;;;;;;;25.30;53.92;96989.81;5071374;28;20196;-78
2023/07/19 01:58:48;;;;;;;9.23;5.40;;;;;;;25.45;53.52;96985.53;5087598;28;20211;-78
2023/07/19 02:01:31;;;;;;;11.33;5.20;;;;;;;25.30;54.46;96973.91;5052824;28;20199;-78
2023/07/19 02:04:26;;;;;;;17.00;6.87;;;;;;;25.03;55.02;96990.06;5070473;28;20204;-78
2023/07/19 02:07:01;;;;;;;763.90;710.80;;;;;;;24.74;56.05;96992.25;5071133;28;20210;-79
2023/07/19 02:10:08;;;;;;;17.57;6.47;;;;;;;24.92;55.91;96987.69;5053428;28;20599;-79
2023/07/19 02:13:30;;;;;;;314.60;289.57;;;;;;;24.97;55.13;96990.69;5069906;28;20871;-76
2023/07/19 02:16:50;;;;;;;375.37;351.00;;;;;;;25.12;54.48;96982.97;5039341;28;20206;-76
2023/07/19 02:20:12;;;;;;;6.73;4.97;;;;;;;25.23;54.62;96985.28;5069465;28;20253;-76
2023/07/19 02:23:34;;;;;;;826.40;768.60;;;;;;;25.45;54.50;96977.59;5068840;28;20207;-76
2023/07/19 02:26:54;;;;;;;21.53;7.43;;;;;;;25.51;54.27;96982.25;5055128;28;20218;-75
2023/07/19 02:30:19;;;;;;;243.00;225.10;;;;;;;25.36;54.66;96998.94;5070067;28;20231;-76
2023/07/19 02:33:39;;;;;;;20.80;10.77;;;;;;;25.13;55.77;96992.56;5070460;28;20199;-77
2023/07/19 02:37:00;;;;;;;833.33;753.27;;;;;;;25.13;56.31;96997.88;5086869;28;20211;-79
2023/07/19 02:39:45;;;;;;;16.53;7.37;;;;;;;25.05;56.24;96998.69;5086508;28;20231;-77
2023/07/19 02:42:52;;;;;;;19.77;7.83;;;;;;;25.15;56.38;96999.38;5070473;28;20291;-77
2023/07/19 02:46:13;;;;;;;12.60;5.93;;;;;;;25.27;55.88;97016.63;5087177;28;20207;-76
2023/07/19 02:49:33;;;;;;;854.17;772.37;;;;;;;25.14;56.13;97010.16;5051482;28;20230;-74
2023/07/19 02:52:55;;;;;;;26.90;10.23;;;;;;;25.04;56.34;97012.91;5068551;28;20294;-74
2023/07/19 02:56:16;;;;;;;18.63;8.50;;;;;;;24.84;57.66;97014.16;5068970;28;20207;-76
2023/07/19 02:59:37;;;;;;;22.07;8.90;;;;;;;24.49;58.54;97001.84;5068848;28;20702;-76
2023/07/19 03:02:57;;;;;;;22.60;8.63;;;;;;;24.58;58.35;97000.94;5053889;28;20676;-76
2023/07/19 03:06:18;;;;;;;17.13;8.07;;;;;;;24.64;58.59;97010.06;5070176;28;20291;-76
2023/07/19 03:09:39;;;;;;;22.23;9.33;;;;;;;24.51;58.80;96993.75;5051780;28;20238;-76
2023/07/19 03:12:59;;;;;;;21.37;9.73;;;;;;;24.54;59.15;96996.09;5052316;28;20202;-77
2023/07/19 03:16:20;;;;;;;17.77;8.00;;;;;;;24.55;59.02;97000.38;5065108;28;20212;-76
2023/07/19 03:19:41;;;;;;;16.73;8.00;;;;;;;24.59;59.70;97013.16;5068465;28;20240;-76
2023/07/19 03:22:22;;;;;;;23.10;9.50;;;;;;;24.38;60.47;97018.00;5053738;28;20219;-79
2023/07/19 03:25:29;;;;;;;21.50;8.83;;;;;;;24.25;62.10;97013.09;5086783;28;20199;-79
2023/07/19 03:28:50;;;;;;;25.17;9.53;;;;;;;23.75;64.01;97005.91;5065543;28;20209;-76
2023/07/19 03:32:10;;;;;;;31.00;12.93;;;;;;;23.58;64.75;97006.72;5063022;28;20336;-77
2023/07/19 03:35:31;;;;;;;31.17;12.13;;;;;;;23.56;64.29;96993.66;5032638;28;20638;-77
2023/07/19 03:38:51;;;;;;;27.67;9.67;;;;;;;23.76;63.77;96999.66;5057447;28;20728;-75
2023/07/19 03:42:14;;;;;;;20.43;8.77;;;;;;;23.72;63.57;96999.09;5050503;28;20200;-76
2023/07/19 03:44:55;;;;;;;26.17;9.90;;;;;;;23.66;64.18;96993.63;5065974;28;20197;-79
2023/07/19 03:47:22;;;;;;;30.93;11.27;;;;;;;23.73;64.12;96995.50;5068188;28;20642;-76
2023/07/19 03:49:54;;;;;;;28.20;10.87;;;;;;;23.88;63.62;96998.44;5068788;28;20668;-77
2023/07/19 03:52:21;;;;;;;28.20;23.77;;;;;;;24.15;62.88;97001.00;5047895;28;20825;-77
2023/07/19 03:54:50;;;;;;;115.23;108.27;;;;;;;24.53;61.42;96995.25;5025429;28;20666;-83
2023/07/19 03:57:58;;;;;;;319.07;298.53;;;;;;;24.76;60.29;96998.22;5046252;28;20210;-84
2023/07/19 04:01:19;;;;;;;493.53;461.40;;;;;;;24.95;59.75;96984.72;5068264;28;20223;-84
2023/07/19 04:04:39;;;;;;;683.73;638.23;;;;;;;25.25;57.97;96970.91;5070265;28;20207;-77
2023/07/19 04:08:01;;;;;;;627.63;585.23;;;;;;;25.84;56.38;96989.22;5104003;28;20200;-77
2023/07/19 04:11:04;;;;;;;550.47;513.87;;;;;;;26.12;55.70;96973.00;5051706;28;20201;-79
2023/07/19 04:14:11;;;;;;;747.63;699.27;;;;;;;26.40;55.73;96976.94;5059864;28;20727;-79
2023/07/19 04:17:32;;;;;;;828.97;772.70;;;;;;;26.28;55.05;96994.22;5060052;28;20204;-78
2023/07/19 04:20:58;;;;;;;325.60;305.83;;;;;;;26.45;55.16;96987.88;5063881;28;20298;-77
2023/07/19 04:24:19;;;;;;;559.80;524.37;;;;;;;27.20;53.85;96979.31;5061994;28;20200;-77
2023/07/19 04:27:04;;;;;;;548.17;512.73;;;;;;;27.52;52.28;96983.66;5066722;28;20232;-80
2023/07/19 04:29:40;;;;;;;565.30;528.20;;;;;;;27.55;52.28;96979.81;5020596;28;20226;-78
2023/07/19 04:32:48;;;;;;;721.87;675.57;;;;;;;27.90;51.26;96982.69;5067240;28;20597;-79
2023/07/19 04:36:00;;;;;;;694.43;649.63;;;;;;;28.15;51.41;96978.84;5068202;28;20314;-79
2023/07/19 04:39:05;;;;;;;748.40;698.67;;;;;;;28.41;49.77;96996.25;5085771;28;20235;-80
2023/07/19 04:42:33;;;;;;;871.37;813.83;;;;;;;27.68;52.01;96991.53;5054483;28;20254;-79
2023/07/19 04:45:55;;;;;;;578.20;539.67;;;;;;;27.27;52.86;96988.25;5066941;28;20196;-77
2023/07/19 04:48:57;;;;;;;657.07;612.63;;;;;;;27.79;51.54;96984.97;5067054;28;20235;-77
2023/07/19 04:52:04;;;;;;;912.03;833.47;;;;;;;28.31;49.68;96988.53;5035660;28;20252;-80
2023/07/19 04:55:26;;;;;;;877.50;810.57;;;;;;;27.65;51.36;96988.41;5084306;28;20605;-79
2023/07/19 04:58:07;;;;;;;855.13;797.13;;;;;;;27.63;51.04;96947.81;5086662;28;20200;-80
2023/07/19 05:01:14;;;;;;;798.87;736.43;;;;;;;28.07;50.71;96983.41;5072304;28;20242;-80
2023/07/19 05:04:34;;;;;;;805.47;750.43;;;;;;;27.65;50.66;96986.56;5089077;28;20687;-79
2023/07/19 05:07:56;;;;;;;645.33;602.63;;;;;;;28.26;48.46;96980.25;5053662;28;20235;-79
2023/07/19 05:11:19;;;;;;;901.80;824.43;;;;;;;29.26;47.85;96984.16;5054048;28;20239;-78
2023/07/19 05:14:40;;;;;;;931.97;849.97;;;;;;;29.72;46.66;96977.47;5070509;28;20212;-77
2023/07/19 05:18:01;;;;;;;951.80;868.60;;;;;;;29.93;45.53;96942.78;5070562;28;20208;-77
2023/07/19 05:21:23;;;;;;;964.10;879.70;;;;;;;30.24;44.16;96982.47;5069971;28;20239;-78
2023/07/19 05:24:44;;;;;;;953.07;877.20;;;;;;;30.40;43.03;96980.38;5088209;28;20201;-79
2023/07/19 05:28:06;;;;;;;939.13;867.97;;;;;;;30.09;43.99;96937.16;5072974;28;20193;-80
2023/07/19 05:31:27;;;;;;;969.83;884.73;;;;;;;30.59;44.70;96964.66;5053999;28;20189;-80
2023/07/19 05:34:47;;;;;;;961.83;883.37;;;;;;;30.83;43.63;96973.03;5072536;28;20200;-78
2023/07/19 05:38:09;;;;;;;972.47;887.63;;;;;;;30.56;41.85;96932.97;5088071;28;20204;-80
2023/07/19 05:41:30;;;;;;;975.43;890.33;;;;;;;30.50;42.41;96972.84;5071699;28;20192;-79
2023/07/19 05:44:51;;;;;;;974.40;888.97;;;;;;;30.68;41.36;96984.88;5070101;28;20287;-78
2023/07/19 05:48:12;;;;;;;973.93;889.80;;;;;;;30.86;42.96;96982.53;5070357;28;20201;-76
2023/07/19 05:51:34;;;;;;;988.17;903.43;;;;;;;31.21;41.97;96979.63;5055439;28;20201;-79
2023/07/19 05:54:55;;;;;;;989.67;904.80;;;;;;;31.37;42.21;96980.31;5087183;28;20200;-78
2023/07/19 05:58:15;;;;;;;978.90;896.27;;;;;;;31.38;41.12;96974.75;5069294;28;20284;-81
2023/07/19 06:01:36;;;;;;;985.57;900.83;;;;;;;31.61;40.97;96977.94;5069898;28;20271;-79
2023/07/19 06:04:57;;;;;;;979.10;896.87;;;;;;;31.57;40.20;96970.50;5087442;28;20196;-79
2023/07/19 06:08:18;;;;;;;987.83;903.17;;;;;;;31.77;40.36;96972.19;5069079;28;20779;-80
2023/07/19 06:11:39;;;;;;;994.57;909.93;;;;;;;31.94;40.32;96968.09;5051958;28;20192;-80
2023/07/19 06:15:00;;;;;;;1000.73;914.97;;;;;;;32.22;40.75;96972.44;5071819;28;20196;-79
2023/07/19 06:18:22;;;;;;;987.93;903.07;;;;;;;31.89;41.22;96970.56;5055552;28;20283;-80
2023/07/19 06:21:42;;;;;;;992.63;907.23;;;;;;;31.82;41.85;96963.56;5087186;28;20320;-79
2023/07/19 06:25:03;;;;;;;1005.27;918.20;;;;;;;31.77;40.64;96964.16;5070331;28;20204;-79
2023/07/19 06:28:24;;;;;;;313.63;283.07;;;;;;;32.07;39.61;96970.81;5086170;28;20200;-80
2023/07/19 06:31:44;;;;;;;314.90;292.47;;;;;;;32.12;38.24;96969.34;5071479;28;20203;-79
2023/07/19 06:34:34;;;;;;;1012.57;927.60;;;;;;;32.30;38.03;96969.56;5068315;28;20208;-79
2023/07/19 06:37:43;;;;;;;1008.57;921.67;;;;;;;32.34;37.80;96968.09;5068925;28;20188;-79
2023/07/19 06:41:03;;;;;;;866.73;793.83;;;;;;;32.37;37.71;96965.03;5071790;28;20221;-78
2023/07/19 06:44:24;;;;;;;1005.50;921.73;;;;;;;32.33;37.48;96963.78;5054213;28;20617;-79
2023/07/19 06:47:45;;;;;;;1007.73;922.03;;;;;;;32.67;35.63;96974.28;5086181;28;20208;-78
2023/07/19 06:51:06;;;;;;;1000.50;915.73;;;;;;;32.60;34.99;96965.44;5067411;28;20235;-78
2023/07/19 06:54:26;;;;;;;12.38;7.35;;;;;;;32.58;35.62;96964.81;5086105;28;20361;-79
2023/07/19 06:57:47;;;;;;;21.95;8.55;;;;;;;32.71;35.72;96959.41;5086388;28;20329;-77
2023/07/19 07:01:07;;;;;;;13.40;6.40;;;;;;;32.87;35.20;96967.03;5086601;28;20622;-77
2023/07/19 07:04:28;;;;;;;10.95;6.10;;;;;;;32.81;34.96;96971.34;5084474;28;20204;-77
2023/07/19 07:07:49;;;;;;;587.15;548.10;;;;;;;32.83;35.49;96953.19;5084263;28;20723;-77
2023/07/19 07:11:10;;;;;;;11.63;6.18;;;;;;;32.92;34.84;96961.84;5086142;28;20763;-76
2023/07/19 07:14:30;;;;;;;9.38;5.55;;;;;;;32.94;34.97;96959.75;5086395;28;20193;-77
2023/07/19 07:17:51;;;;;;;19.83;17.90;;;;;;;32.71;34.36;96949.50;5050890;28;20216;-77
2023/07/19 07:21:15;;;;;;;767.03;717.00;;;;;;;32.58;33.81;96935.31;5084322;28;20469;-78
2023/07/19 07:24:38;;;;;;;969.10;902.80;;;;;;;32.70;34.32;96937.16;5085616;28;20279;-76
2023/07/19 07:27:59;;;;;;;981.33;911.87;;;;;;;33.01;33.92;96931.09;5086147;28;20514;-77
2023/07/19 07:31:23;;;;;;;1001.27;924.27;;;;;;;33.13;32.57;96939.28;5053728;28;20188;-76
2023/07/19 07:34:44;;;;;;;11.80;6.32;;;;;;;33.29;33.52;96931.56;5085199;28;20197;-78
2023/07/19 07:38:05;;;;;;;406.40;378.70;;;;;;;33.44;32.67;96942.84;5084893;28;20204;-78
2023/07/19 07:41:25;;;;;;;1002.13;932.27;;;;;;;33.15;32.81;96943.41;5068118;28;20739;-77
2023/07/19 07:44:46;;;;;;;1003.23;929.77;;;;;;;33.20;32.62;96943.56;5071798;28;20205;-78
2023/07/19 07:48:07;;;;;;;867.03;800.33;;;;;;;33.34;32.82;96939.81;5091424;28;20216;-77
2023/07/19 07:51:43;;;;;;;965.80;892.20;;;;;;;33.34;32.93;96945.19;5078012;28;20197;-79
2023/07/19 07:55:05;;;;;;;452.27;418.60;;;;;;;33.33;32.46;96927.41;5086260;28;20280;-77
2023/07/19 07:58:36;;;;;;;1050.93;968.07;;;;;;;33.41;32.77;96940.56;5068960;28;20257;-79
2023/07/19 08:01:57;;;;;;;1061.77;972.80;;;;;;;33.04;32.81;96941.38;5085964;28;20196;-78
2023/07/19 08:05:17;;;;;;;1040.87;961.20;;;;;;;32.58;33.07;96943.38;5084808;28;20204;-77
2023/07/19 08:08:38;;;;;;;1036.30;957.10;;;;;;;32.16;33.86;96933.91;5051652;28;20201;-78
2023/07/19 08:11:59;;;;;;;1029.83;949.10;;;;;;;32.59;33.65;96926.22;5051762;28;20549;-77
2023/07/19 08:15:19;;;;;;;1043.30;955.57;;;;;;;33.12;32.28;96921.53;5074234;28;20202;-77
2023/07/19 08:18:40;;;;;;;1042.23;958.57;;;;;;;32.71;32.31;96922.69;5060232;28;20192;-78
2023/07/19 08:22:01;;;;;;;1042.07;954.97;;;;;;;32.96;32.51;96917.44;5058462;28;20289;-77
2023/07/19 08:25:23;;;;;;;1046.17;957.33;;;;;;;33.38;32.18;96924.09;5057220;28;20200;-79
2023/07/19 08:28:44;;;;;;;1055.97;967.87;;;;;;;33.52;32.87;96905.03;5058799;28;20205;-78
2023/07/19 08:31:45;;;;;;;1052.30;970.73;;;;;;;33.61;32.57;96919.00;5056121;28;20228;-78
2023/07/19 08:34:52;;;;;;;1031.57;960.47;;;;;;;33.65;31.94;96921.03;5060271;28;20213;-78
2023/07/19 08:38:13;;;;;;;1058.87;979.90;;;;;;;33.83;32.21;96911.41;5043654;28;20768;-78
2023/07/19 08:41:40;;;;;;;905.28;845.50;;;;;;;33.67;31.79;96916.25;5062916;28;20197;-78
2023/07/19 08:45:00;;;;;;;1034.47;961.27;;;;;;;33.81;31.94;96910.81;5044474;28;20772;-77
2023/07/19 08:47:45;;;;;;;906.28;846.83;;;;;;;33.96;31.32;96896.00;5073284;28;20208;-78
2023/07/19 08:50:13;;;;;;;982.65;918.30;;;;;;;33.99;30.81;96886.66;5052201;28;20227;-78
2023/07/19 08:53:21;;;;;;;1022.55;953.83;;;;;;;34.17;30.49;96900.19;5069946;28;20237;-78
2023/07/19 08:56:43;;;;;;;1077.38;997.90;;;;;;;34.23;30.08;96902.00;5033440;28;20303;-77
2023/07/19 09:00:04;;;;;;;1080.80;997.08;;;;;;;34.29;30.26;96911.88;5019044;28;20626;-77
2023/07/19 09:03:25;;;;;;;1094.07;999.63;;;;;;;34.15;31.16;96904.97;5068290;28;20209;-78
2023/07/19 09:06:48;;;;;;;904.60;842.10;;;;;;;34.24;30.98;96901.78;5050587;28;20630;-77
2023/07/19 09:10:15;;;;;;;1055.30;980.72;;;;;;;34.11;29.90;96901.06;5052330;28;20696;-77
2023/07/19 09:13:37;;;;;;;881.38;821.58;;;;;;;33.92;29.97;96888.59;5068156;28;20299;-77
2023/07/19 09:17:08;;;;;;;407.92;379.27;;;;;;;34.01;29.93;96898.88;5062053;28;20591;-76
2023/07/19 09:20:29;;;;;;;177.05;163.70;;;;;;;34.25;30.77;96899.91;5088558;28;20329;-77
2023/07/19 09:27:38;;;;;;;306.30;285.75;;;;;;;34.46;29.40;96904.84;5069814;28;20237;-78
2023/07/19 09:30:58;;;;;;;356.30;332.60;;;;;;;33.79;30.16;96899.44;5067544;28;20629;-77
2023/07/19 09:34:19;;;;;;;552.13;512.67;;;;;;;33.12;30.98;96882.06;5049391;28;20280;-78
2023/07/19 09:37:40;;;;;;;982.33;917.17;;;;;;;32.98;31.47;96883.19;5050165;28;20201;-79
2023/07/19 09:41:00;;;;;;;989.40;921.10;;;;;;;32.93;31.37;96887.53;5048497;28;20316;-79
2023/07/19 09:44:22;;;;;;;302.98;281.83;;;;;;;33.15;31.37;96870.91;5047637;28;20252;-78
2023/07/19 09:47:43;;;;;;;194.80;181.32;;;;;;;33.46;31.68;96846.75;5067034;28;20197;-75
2023/07/19 09:51:04;;;;;;;447.02;415.02;;;;;;;33.66;31.27;96873.50;5036013;28;20212;-77
2023/07/19 09:54:25;;;;;;;863.25;807.47;;;;;;;33.58;30.97;96868.41;5050090;28;20219;-76
2023/07/19 09:57:47;;;;;;;599.28;557.03;;;;;;;33.88;30.81;96850.56;5048843;28;20212;-78
2023/07/19 10:01:07;;;;;;;604.50;560.53;;;;;;;34.08;31.22;96819.00;5051081;28;20236;-77
2023/07/19 10:04:44;;;;;;;943.80;883.97;;;;;;;33.99;30.61;96851.72;5049406;28;20214;-78
2023/07/19 10:08:04;;;;;;;1018.27;939.07;;;;;;;33.87;30.29;96845.41;5049941;28;20193;-78
2023/07/19 10:11:25;;;;;;;168.65;154.63;;;;;;;33.98;30.45;96853.59;5067092;28;20205;-78
2023/07/19 10:14:46;;;;;;;441.73;411.20;;;;;;;33.97;30.73;96837.66;5018211;28;20204;-79
2023/07/19 10:17:51;;;;;;;607.45;564.28;;;;;;;33.65;30.69;96843.13;5066992;28;20248;-78
2023/07/19 10:21:13;;;;;;;337.50;311.95;;;;;;;33.41;31.46;96827.78;5034471;28;20243;-78
2023/07/19 10:24:35;;;;;;;171.90;160.90;;;;;;;33.42;32.15;96832.13;5018730;28;20688;-79
2023/07/19 10:27:57;;;;;;;187.73;174.25;;;;;;;33.53;31.68;96836.81;5053862;28;20196;-78
2023/07/19 10:30:44;;;;;;;317.65;296.20;;;;;;;33.71;30.86;96832.53;5053644;28;20207;-79
2023/07/19 10:34:07;;;;;;;526.13;488.38;;;;;;;33.84;30.93;96827.84;5067730;28;20287;-78
2023/07/19 10:37:28;;;;;;;263.63;245.88;;;;;;;34.11;31.44;96828.47;5049057;28;20292;-78
2023/07/19 10:40:49;;;;;;;336.17;313.70;;;;;;;34.39;30.60;96820.72;5048259;28;20232;-77
2023/07/19 10:44:10;;;;;;;42.25;31.77;;;;;;;34.74;29.62;96812.88;5065805;28;20277;-77
2023/07/19 10:47:31;;;;;;;47.40;34.15;;;;;;;34.60;30.05;96806.84;5038572;28;20205;-78
2023/07/19 10:50:53;;;;;;;18.58;7.60;;;;;;;34.61;29.99;96797.72;5059534;28;20212;-78
2023/07/19 10:54:24;;;;;;;20.35;9.27;;;;;;;34.98;29.33;96802.00;5067730;28;20200;-79
2023/07/19 10:57:44;;;;;;;53.33;47.67;;;;;;;35.13;28.97;96801.59;5025211;28;20321;-79
2023/07/19 11:01:06;;;;;;;43.40;33.10;;;;;;;35.08;30.57;96779.91;5085997;28;20230;-78
2023/07/19 11:04:26;;;;;;;30.25;25.13;;;;;;;35.15;29.28;96796.81;5069173;28;20193;-79
2023/07/19 11:07:50;;;;;;;32.72;12.60;;;;;;;34.68;30.11;96785.00;5070249;28;20196;-78
2023/07/19 11:11:11;;;;;;;27.50;15.77;;;;;;;34.98;29.95;96791.25;5080758;28;20228;-77
2023/07/19 11:14:50;;;;;;;96.65;88.40;;;;;;;34.72;29.79;96770.06;5066198;28;20201;-79
2023/07/19 11:18:11;;;;;;;379.58;352.85;;;;;;;34.83;30.62;96782.72;5083796;28;20207;-79
2023/07/19 11:21:34;;;;;;;728.08;672.10;;;;;;;34.78;29.95;96781.75;5066150;28;20229;-79
2023/07/19 11:24:58;;;;;;;879.35;813.63;;;;;;;34.54;30.20;96772.75;5039802;28;20205;-79
2023/07/19 11:28:20;;;;;;;663.67;617.65;;;;;;;34.32;30.46;96779.63;5056299;28;20194;-78
2023/07/19 11:31:40;;;;;;;422.38;393.20;;;;;;;33.97;30.85;96762.41;5056250;28;20243;-77
2023/07/19 11:34:49;;;;;;;97.70;90.03;;;;;;;34.14;31.53;96771.56;5019350;28;20224;-78
2023/07/19 11:38:10;;;;;;;27.48;15.20;;;;;;;34.31;31.18;96769.94;5006487;28;20201;-78
2023/07/19 11:41:32;;;;;;;50.47;45.60;;;;;;;34.66;31.60;96757.50;5021948;28;20231;-78
2023/07/19 11:44:21;;;;;;;127.85;118.50;;;;;;;34.93;30.06;96758.75;5055310;28;20206;-78
2023/07/19 11:47:29;;;;;;;213.40;199.90;;;;;;;35.07;30.08;96754.03;5047205;28;20276;-77
2023/07/19 11:50:50;;;;;;;59.53;54.30;;;;;;;35.27;30.34;96759.09;5029171;28;20209;-79
2023/07/19 11:54:10;;;;;;;141.05;131.45;;;;;;;35.53;29.51;96748.75;5010426;28;20762;-79
2023/07/19 11:57:33;;;;;;;392.35;364.67;;;;;;;35.63;29.97;96753.56;5044816;28;20281;-78
2023/07/19 12:00:55;;;;;;;596.63;552.75;;;;;;;35.72;29.92;96746.75;5028415;28;20253;-77
2023/07/19 12:04:16;;;;;;;447.25;415.50;;;;;;;35.91;29.87;96734.78;5045989;28;20558;-78
2023/07/19 12:07:36;;;;;;;661.55;614.90;;;;;;;35.66;30.00;96742.31;5028670;28;20356;-78
2023/07/19 12:11:00;;;;;;;669.63;619.30;;;;;;;34.83;30.30;96746.94;5012243;28;20198;-78
2023/07/19 12:14:21;;;;;;;526.55;490.35;;;;;;;34.69;31.17;96723.91;5010773;28;20194;-77
2023/07/19 12:17:42;;;;;;;256.23;239.90;;;;;;;34.89;30.41;96719.88;5045693;28;20278;-78
2023/07/19 12:21:06;;;;;;;183.80;171.98;;;;;;;34.54;31.09;96731.59;5030543;28;20241;-78
2023/07/19 12:24:26;;;;;;;51.90;47.03;;;;;;;34.99;30.55;96719.38;5064299;28;20645;-78
2023/07/19 12:27:52;;;;;;;49.25;43.83;;;;;;;35.45;29.80;96722.13;5064283;28;20197;-79
2023/07/19 12:31:16;;;;;;;598.92;553.25;;;;;;;35.63;29.91;96711.25;5030620;28;20322;-79
2023/07/19 12:34:26;;;;;;;367.77;342.77;;;;;;;35.59;30.13;96709.28;5047440;28;20197;-79
2023/07/19 12:37:47;;;;;;;259.70;243.60;;;;;;;35.42;30.32;96708.31;5048613;28;20196;-78
2023/07/19 12:41:08;;;;;;;271.00;253.43;;;;;;;35.47;29.64;96708.47;5063813;28;20225;-79
2023/07/19 12:44:28;;;;;;;210.93;199.07;;;;;;;34.95;29.93;96662.44;5064729;28;20770;-79
2023/07/19 12:47:49;;;;;;;216.68;203.25;;;;;;;35.40;30.93;96707.72;5049565;28;20201;-79
2023/07/19 12:51:11;;;;;;;28.00;10.93;;;;;;;35.61;29.95;96691.81;5032385;28;20225;-78
2023/07/19 12:54:32;;;;;;;708.90;660.50;;;;;;;35.65;29.58;96698.38;5048462;28;20205;-78
2023/07/19 12:57:53;;;;;;;295.30;275.55;;;;;;;36.05;29.45;96697.63;5064403;28;20197;-79
2023/07/19 13:01:14;;;;;;;154.85;145.38;;;;;;;36.11;29.21;96686.72;5063943;28;20731;-78
2023/07/19 13:04:34;;;;;;;54.88;50.28;;;;;;;36.04;28.68;96683.34;5064946;28;20216;-78
2023/07/19 13:07:59;;;;;;;85.53;79.25;;;;;;;36.05;28.72;96684.16;5064607;28;20362;-78
2023/07/19 13:11:20;;;;;;;67.75;62.05;;;;;;;36.00;28.95;96682.19;5063972;28;20220;-78
2023/07/19 13:14:41;;;;;;;86.78;80.15;;;;;;;35.70;29.81;96668.00;5046653;28;20205;-78
2023/07/19 13:17:22;;;;;;;56.88;51.25;;;;;;;35.76;30.28;96672.44;5017046;28;20326;-78
2023/07/19 13:19:51;;;;;;;90.00;83.13;;;;;;;36.04;29.88;96669.88;5033491;28;20229;-79
2023/07/19 13:22:59;;;;;;;61.30;56.13;;;;;;;36.18;29.89;96667.69;5069421;28;20225;-78
2023/07/19 13:26:20;;;;;;;120.28;113.50;;;;;;;35.84;29.38;96648.66;5068521;28;20193;-77
2023/07/19 13:29:43;;;;;;;85.10;78.38;;;;;;;35.97;30.23;96658.38;5067862;28;20204;-81
2023/07/19 13:33:04;;;;;;;26.35;22.70;;;;;;;35.44;31.50;96663.91;5049074;28;20204;-79
2023/07/19 13:36:32;;;;;;;42.95;32.00;;;;;;;35.16;31.69;96653.81;5035776;28;20270;-79
2023/07/19 13:39:52;;;;;;;39.72;22.60;;;;;;;35.15;32.59;96662.97;5050543;28;20773;-80
2023/07/19 13:43:10;;;;;;;112.30;105.55;;;;;;;35.16;31.44;96647.63;5067975;28;20227;-80
2023/07/19 13:46:20;;;;;;;39.25;24.98;;;;;;;34.70;32.91;96653.75;5033703;28;20201;-80
2023/07/19 13:49:40;;;;;;;34.53;10.50;;;;;;;34.81;32.48;96652.94;5067716;28;20201;-79
2023/07/19 13:53:05;;;;;;;24.17;8.70;;;;;;;34.56;33.72;96644.19;5050179;28;20201;-79
2023/07/19 13:56:25;;;;;;;22.60;8.45;;;;;;;34.72;33.56;96643.56;5068239;28;20258;-80
2023/07/19 13:59:46;;;;;;;19.25;7.43;;;;;;;34.99;34.67;96649.38;5048691;28;20609;-78
2023/07/19 14:03:09;;;;;;;28.50;10.15;;;;;;;35.08;33.22;96648.78;5066346;28;20696;-78
2023/07/19 14:06:30;;;;;;;22.85;9.05;;;;;;;35.07;32.95;96646.34;5049834;28;20194;-80
2023/07/19 14:09:27;;;;;;;23.15;8.73;;;;;;;34.95;33.28;96648.97;5054002;28;20591;-78
2023/07/19 14:12:37;;;;;;;32.72;10.50;;;;;;;34.78;33.63;96637.25;5053542;28;20270;-79
2023/07/19 14:15:58;;;;;;;28.35;9.18;;;;;;;34.67;34.08;96629.97;5087166;28;20197;-79
2023/07/19 14:19:19;;;;;;;29.85;10.32;;;;;;;34.24;35.02;96632.03;5088511;28;20731;-76
2023/07/19 14:22:39;;;;;;;27.55;9.50;;;;;;;34.31;34.92;96636.25;5088043;28;20225;-79
2023/07/19 14:26:00;;;;;;;24.88;8.75;;;;;;;34.35;35.28;96642.03;5072586;28;20293;-79
2023/07/19 14:29:21;;;;;;;34.70;11.05;;;;;;;34.38;36.05;96636.16;5087354;28;20284;-78
2023/07/19 14:32:42;;;;;;;39.25;11.48;;;;;;;34.22;35.50;96626.06;5087743;28;20219;-79
2023/07/19 14:35:59;;;;;;;30.50;10.18;;;;;;;34.29;35.17;96619.53;5069395;28;20216;-79
2023/07/19 14:38:28;;;;;;;33.63;10.70;;;;;;;34.20;35.41;96615.53;5072623;28;20218;-78
2023/07/19 14:40:56;;;;;;;24.73;8.32;;;;;;;33.98;35.67;96592.03;5069650;28;20675;-78
2023/07/19 14:44:05;;;;;;;29.88;10.88;;;;;;;34.01;35.90;96605.88;5088243;28;20619;-79
2023/07/19 14:47:25;;;;;;;29.08;14.07;;;;;;;34.13;35.48;96624.72;5085333;28;20200;-80
2023/07/19 14:50:46;;;;;;;44.22;32.45;;;;;;;34.01;35.22;96613.94;5085805;28;20220;-80
2023/07/19 14:54:07;;;;;;;126.68;117.10;;;;;;;33.93;35.47;96622.28;5068825;28;20208;-80